Flight Track Log - Related Links

Times and Time Zones

All times are in EDT time to prevent confusion due to time zone crossing. See the N789EX flight status page for this flight to view local times or setup timezone preferences in your user account.

Time Position Orientation Groundspeed Altitude Reporting Facility
EDT Latitude Longitude Course Direction KTS MPH feet Rate Location/Type
01:29PM 47.3144 -119.6381 297° West 232 267 15,100  Level Seattle Center
01:30PM 47.3542 -119.7517 297° West 315 362 15,000 -49 Descending Seattle Center
01:31PM 47.3969 -119.8728 298° West 332 382 15,000 161 Level Seattle Center
01:37PM 47.6241 -120.5170 297° West 340 391 16,000 157 Climbing FlightAware ADS-B
01:37PM 47.6478 -120.5860 297° West 341 392 15,900 -92 Descending FlightAware ADS-B
01:38PM 47.6700 -120.6510 297° West 338 389 15,900  Level FlightAware ADS-B
01:38PM 47.6944 -120.7220 297° West 337 388 15,900  Level FlightAware ADS-B
01:39PM 47.7162 -120.7860 297° West 336 387 15,900  Level FlightAware ADS-B
01:39PM 47.7379 -120.8490 297° West 341 392 15,900  Level FlightAware ADS-B
01:40PM 47.7594 -120.9120 297° West 338 389 15,900  Level FlightAware ADS-B
01:40PM 47.7807 -120.9750 297° West 337 388 15,900  Level FlightAware ADS-B
01:41PM 47.8020 -121.0380 297° West 336 387 15,900  Level FlightAware ADS-B
01:41PM 47.8226 -121.0987 297° West 339 390 15,900  Level FlightAware ADS-B (CYVR)
01:41PM 47.8230 -121.1000 297° West 339 390 15,900  Level FlightAware ADS-B
01:42PM 47.8420 -121.1560 295° West 338 389 15,900 -162 Level FlightAware ADS-B
01:42PM 47.8477 -121.1770 290° West 340 391 15,800 -500 Descending FlightAware ADS-B
01:42PM 47.8475 -121.1763 289° West 340 391 15,800 -1,091 Level FlightAware ADS-B
01:42PM 47.8527 -121.2020 285° West 339 390 15,600 -1,412 Descending FlightAware ADS-B
01:42PM 47.8555 -121.2210 281° West 339 390 15,400 -1,600 Descending FlightAware ADS-B
01:42PM 47.8575 -121.2360 278° West 339 390 15,200 -1,946 Descending FlightAware ADS-B
01:43PM 47.8615 -121.3050 276° West 339 390 14,200 -1,900 Descending FlightAware ADS-B
01:43PM 47.8660 -121.3750 275° West 338 389 13,300 -1,800 Descending FlightAware ADS-B
01:44PM 47.8704 -121.4450 275° West 335 386 12,400 -1,800 Descending FlightAware ADS-B
01:44PM 47.8732 -121.4893 275° West 332 382 11,800 -1,400 Descending FlightAware ADS-B (CYVR)
01:44PM 47.8746 -121.5130 275° West 326 375 11,700 -649 Descending FlightAware ADS-B
01:45PM 47.8781 -121.5691 275° West 304 350 11,400 -581 Descending FlightAware ADS-B (CYVR)
01:45PM 47.8787 -121.5790 275° West 302 348 11,400 -353 Level FlightAware ADS-B
01:45PM 47.8824 -121.6380 275° West 281 323 11,200 -529 Descending FlightAware ADS-B
01:46PM 47.8824 -121.6389 275° West 277 319 11,100 -462 Descending FlightAware ADS-B (CYVR)
01:46PM 47.8839 -121.6620 274° West 272 313 11,100 -300 Level FlightAware ADS-B
01:46PM 47.8832 -121.6850 261° West 274 315 11,000 -462 Descending FlightAware ADS-B
01:46PM 47.8829 -121.6872 259° West 274 315 11,000 -1,000 Level FlightAware ADS-B (CYVR)
01:46PM 47.8816 -121.6950 254° West 275 316 10,900 -545 Descending FlightAware ADS-B
01:46PM 47.8783 -121.7070 245° Southwest 276 318 10,900  Level FlightAware ADS-B
01:46PM 47.8753 -121.7150 239° Southwest 276 318 10,900  Level FlightAware ADS-B
01:46PM 47.8719 -121.7220 233° Southwest 278 320 10,900  Level FlightAware ADS-B (CYVR)
01:46PM 47.8691 -121.7270 229° Southwest 280 322 10,900  Level FlightAware ADS-B
01:46PM 47.8635 -121.7350 223° Southwest 282 325 10,900  Level FlightAware ADS-B
01:46PM 47.8592 -121.7408 222° Southwest 283 326 10,900 -240 Level FlightAware ADS-B (CYVR)
01:47PM 47.8388 -121.7690 223° Southwest 281 323 10,800 -444 Descending FlightAware ADS-B
01:47PM 47.8322 -121.7790 230° Southwest 277 319 10,700 -1,385 Descending FlightAware ADS-B
01:47PM 47.8290 -121.7870 239° Southwest 275 316 10,500 -1,800 Descending FlightAware ADS-B
01:47PM 47.8263 -121.7950 247° West 272 313 10,400 -1,500 Descending FlightAware ADS-B
01:47PM 47.8244 -121.8032 250° West 272 313 10,200 -1,200 Descending FlightAware ADS-B (CYVR)
01:47PM 47.8224 -121.8130 253° West 271 312 10,200 -667 Level FlightAware ADS-B
01:48PM 47.8169 -121.8410 254° West 273 314 10,000 -750 Descending FlightAware ADS-B
01:48PM 47.8169 -121.8410 255° West 274 315 10,000 -375 Level FlightAware ADS-B (CYVR)
01:48PM 47.8117 -121.8690 255° West 274 315 9,900 -300 Descending FlightAware ADS-B
01:48PM 47.8103 -121.8769 255° West 273 314 9,900  Level FlightAware ADS-B (CYVR)
01:48PM 47.8076 -121.8910 255° West 273 314 9,900  Level FlightAware ADS-B
01:48PM 47.8042 -121.9094 255° West 272 313 9,900  Level FlightAware ADS-B (CYVR)
01:48PM 47.8024 -121.9190 255° West 272 313 9,900  Level FlightAware ADS-B
01:48PM 47.7974 -121.9460 255° West 270 311 9,900 -286 Level FlightAware ADS-B
01:49PM 47.7957 -121.9550 256° West 269 310 9,800 -1,800 Descending FlightAware ADS-B
01:49PM 47.7945 -121.9640 260° West 267 307 9,600 -1,800 Descending FlightAware ADS-B
01:49PM 47.7936 -121.9730 262° West 265 305 9,500 -1,000 Descending FlightAware ADS-B
01:49PM 47.7920 -121.9970 265° West 260 299 9,300 -889 Descending FlightAware ADS-B
01:49PM 47.7907 -122.0210 266° West 252 290 9,100 -800 Descending FlightAware ADS-B
01:49PM 47.7907 -122.0225 266° West 252 290 9,100 -462 Level FlightAware ADS-B (CYVR)
01:49PM 47.7896 -122.0440 266° West 246 283 9,000 -444 Descending FlightAware ADS-B
01:50PM 47.7883 -122.0680 266° West 235 270 8,900 -333 Descending FlightAware ADS-B
01:50PM 47.7882 -122.0709 266° West 235 270 8,900 -800 Level FlightAware ADS-B (CYVR)
01:50PM 47.7871 -122.0930 266° West 233 268 8,700 -1,071 Descending FlightAware ADS-B
01:50PM 47.7859 -122.1170 266° West 234 269 8,400 -1,412 Descending FlightAware ADS-B
01:50PM 47.7859 -122.1180 266° West 234 269 8,300 -1,636 Descending FlightAware ADS-B (CYVR)
01:50PM 47.7849 -122.1350 265° West 235 270 8,100 -818 Descending FlightAware ADS-B
01:51PM 47.7838 -122.1540 265° West 231 266 8,000 -444 Descending FlightAware ADS-B
01:51PM 47.7823 -122.1780 265° West 230 265 7,900 -667 Descending FlightAware ADS-B
01:51PM 47.7812 -122.1954 265° West 229 264 7,700 -1,200 Descending FlightAware ADS-B (CYVR)
01:51PM 47.7808 -122.2020 264° West 229 264 7,600 -1,200 Descending FlightAware ADS-B
01:51PM 47.7793 -122.2280 266° West 224 258 7,300 -1,034 Descending FlightAware ADS-B
01:52PM 47.7785 -122.2460 267° West 221 254 7,100 -900 Descending FlightAware ADS-B
01:52PM 47.7781 -122.2580 267° West 220 253 7,000 -522 Descending FlightAware ADS-B
01:52PM 47.7774 -122.2810 267° West 220 253 6,900 -231 Descending FlightAware ADS-B
01:52PM 47.7769 -122.2970 268° West 210 242 6,900  Level FlightAware ADS-B
01:52PM 47.7770 -122.3030 272° West 206 237 6,900  Level FlightAware ADS-B
01:52PM 47.7778 -122.3110 281° West 201 231 6,900  Level FlightAware ADS-B
01:52PM 47.7792 -122.3160 291° West 196 226 6,900  Level FlightAware ADS-B
01:52PM 47.7806 -122.3200 299° West 192 221 6,900  Level FlightAware ADS-B
01:52PM 47.7825 -122.3240 303° West 187 215 6,900  Level FlightAware ADS-B
01:53PM 47.7865 -122.3320 308° West 182 209 6,900  Level FlightAware ADS-B
01:53PM 47.7905 -122.3400 310° West 179 206 6,900 -923 Level FlightAware ADS-B
01:53PM 47.8003 -122.3570 310° West 178 205 6,500 -1,412 Descending FlightAware ADS-B
01:53PM 47.8084 -122.3710 309° West 179 206 6,100 -1,742 Descending FlightAware ADS-B
01:54PM 47.8162 -122.3860 308° West 178 205 5,600 -1,920 Descending FlightAware ADS-B
01:54PM 47.8214 -122.3960 305° West 178 205 5,300 -2,143 Descending FlightAware ADS-B
01:54PM 47.8228 -122.4000 301° West 179 206 5,100 -2,250 Descending FlightAware ADS-B
01:54PM 47.8240 -122.4040 291° West 179 206 5,000 -2,000 Descending FlightAware ADS-B
01:54PM 47.8244 -122.4140 279° West 180 207 4,700 -2,182 Descending FlightAware ADS-B
01:54PM 47.8238 -122.4180 257° West 179 206 4,600 -1,714 Descending FlightAware ADS-B
01:54PM 47.8226 -122.4220 247° West 178 205 4,500 -1,714 Descending FlightAware ADS-B
01:54PM 47.8212 -122.4260 243° Southwest 178 205 4,400 -1,500 Descending FlightAware ADS-B
01:54PM 47.8195 -122.4310 240° Southwest 178 205 4,300 -1,500 Descending FlightAware ADS-B
01:54PM 47.8128 -122.4470 237° Southwest 180 207 3,900 -1,655 Descending FlightAware ADS-B
01:55PM 47.8063 -122.4620 237° Southwest 179 206 3,500 -1,556 Descending FlightAware ADS-B
01:55PM 47.8009 -122.4750 239° Southwest 175 201 3,200 -1,200 Descending FlightAware ADS-B
01:55PM 47.7958 -122.4870 240° Southwest 173 199 3,000 -1,200 Descending FlightAware ADS-B
01:55PM 47.7905 -122.5010 240° Southwest 170 196 2,700 -1,333 Descending FlightAware ADS-B
01:55PM 47.7882 -122.5060 235° Southwest 169 194 2,600 -1,000 Descending FlightAware ADS-B
01:56PM 47.7847 -122.5110 220° Southwest 165 190 2,500 -1,091 Descending FlightAware ADS-B
01:56PM 47.7736 -122.5120 214° Southwest 164 189 2,200 -783 Descending FlightAware ADS-B
01:56PM 47.7690 -122.5080 146° Southeast 164 189 2,200  Level FlightAware ADS-B
01:56PM 47.7632 -122.5020 146° Southeast 169 194 2,200 -400 Level FlightAware ADS-B
01:56PM 47.7593 -122.4980 148° Southeast 170 196 2,100 -222 Descending FlightAware ADS-B
01:57PM 47.7449 -122.4850 150° Southeast 171 197 2,100  Level FlightAware ADS-B
01:57PM 47.7066 -122.4530 149° Southeast 172 198 2,100  Level FlightAware ADS-B
01:58PM 47.6804 -122.4300 149° Southeast 173 199 2,100  Level FlightAware ADS-B
01:58PM 47.6663 -122.4180 149° Southeast 173 199 2,100  Level FlightAware ADS-B
01:59PM 47.6554 -122.4100 152° Southeast 155 178 2,100  Level FlightAware ADS-B
01:59PM 47.6469 -122.4020 147° Southeast 155 178 2,100  Level FlightAware ADS-B
01:59PM 47.6403 -122.3960 147° Southeast 156 180 2,100  Level FlightAware ADS-B
01:59PM 47.6337 -122.3890 149° Southeast 156 180 2,100 -333 Level FlightAware ADS-B
01:59PM 47.6287 -122.3850 152° Southeast 157 181 2,000 -828 Descending FlightAware ADS-B
02:00PM 47.6157 -122.3750 152° Southeast 156 180 1,700 -789 Descending FlightAware ADS-B
02:00PM 47.6049 -122.3660 150° Southeast 156 180 1,500 -735 Descending FlightAware ADS-B
02:01PM 47.5850 -122.3492 150° Southeast 154 177 1,100 -750 Descending Seattle Center
02:01PM 47.5708 -122.3372 150° Southeast 157 181 800 -764 Descending Seattle Center
02:02PM 47.5522 -122.3244 155° Southeast 167 192 400 -689 Descending Seattle Center
02:02PM 47.5336 -122.3053 145° Southeast 157 181 100 -196 Descending Seattle Center
02:03PM 47.4992 -122.2758 150° Southeast 157 181 100  Level Seattle Center

Login

Don't have an account? Register now (free) for customized features, flight alerts, and more!